createdAt,value
2022-11-10T00:00:40.804Z,1009.37
2022-11-10T00:01:40.819Z,1009.43
2022-11-10T00:02:40.835Z,1009.41
2022-11-10T00:03:40.956Z,1009.40
2022-11-10T00:04:40.864Z,1009.36
2022-11-10T00:05:40.898Z,1009.42
2022-11-10T00:06:40.918Z,1009.39
2022-11-10T00:07:40.907Z,1009.36
2022-11-10T00:08:40.921Z,1009.37
2022-11-10T00:09:40.938Z,1009.37
2022-11-10T00:10:40.952Z,1009.37
2022-11-10T00:11:40.965Z,1009.40
2022-11-10T00:12:40.981Z,1009.38
2022-11-10T00:13:40.995Z,1009.36
2022-11-10T00:14:41.010Z,1009.39
2022-11-10T00:15:41.029Z,1009.40
2022-11-10T00:16:41.039Z,1009.38
2022-11-10T00:17:41.055Z,1009.43
2022-11-10T00:18:41.069Z,1009.46
2022-11-10T00:19:41.082Z,1009.48
2022-11-10T00:20:41.097Z,1009.47
2022-11-10T00:21:41.111Z,1009.52
2022-11-10T00:22:41.145Z,1009.54
2022-11-10T00:23:41.141Z,1009.53
2022-11-10T00:24:41.156Z,1009.53
2022-11-10T00:25:41.171Z,1009.53
2022-11-10T00:26:41.185Z,1009.58
2022-11-10T00:27:41.205Z,1009.59
2022-11-10T00:28:41.214Z,1009.60
2022-11-10T00:29:41.229Z,1009.60
2022-11-10T00:30:44.540Z,1009.62
2022-11-10T00:31:41.258Z,1009.60
2022-11-10T00:32:41.273Z,1009.65
2022-11-10T00:33:41.291Z,1009.62
2022-11-10T00:34:41.303Z,1009.64
2022-11-10T00:35:41.318Z,1009.63
2022-11-10T00:36:41.331Z,1009.60
2022-11-10T00:37:41.346Z,1009.64
2022-11-10T00:38:41.361Z,1009.67
2022-11-10T00:39:41.375Z,1009.67
2022-11-10T00:40:41.389Z,1009.68
2022-11-10T00:41:41.408Z,1009.70
2022-11-10T00:42:41.420Z,1009.76
2022-11-10T00:43:41.436Z,1009.71
2022-11-10T00:44:41.470Z,1009.73
2022-11-10T00:45:41.478Z,1009.72
2022-11-10T00:46:41.480Z,1009.72
2022-11-10T00:47:41.496Z,1009.70
2022-11-10T00:48:41.521Z,1009.66
2022-11-10T00:49:41.539Z,1009.70
2022-11-10T00:50:41.542Z,1009.66
2022-11-10T00:51:41.553Z,1009.68
2022-11-10T00:52:41.572Z,1009.68
2022-11-10T00:53:41.587Z,1009.67
2022-11-10T00:54:41.598Z,1009.68
2022-11-10T00:55:41.622Z,1009.74
2022-11-10T00:56:41.631Z,1009.71
2022-11-10T00:57:41.645Z,1009.78
2022-11-10T00:58:41.659Z,1009.80
2022-11-10T00:59:41.675Z,1009.80
2022-11-10T01:00:41.714Z,1009.82
2022-11-10T01:01:41.707Z,1009.85
2022-11-10T01:02:41.722Z,1009.86
2022-11-10T01:03:41.735Z,1009.86
2022-11-10T01:04:41.751Z,1009.87
2022-11-10T01:05:41.768Z,1009.89
2022-11-10T01:06:41.811Z,1009.87
2022-11-10T01:07:41.795Z,1009.84
2022-11-10T01:08:41.809Z,1009.87
2022-11-10T01:09:41.824Z,1009.87
2022-11-10T01:10:41.840Z,1009.90
2022-11-10T01:11:41.854Z,1009.90
2022-11-10T01:12:41.870Z,1009.90
2022-11-10T01:13:41.886Z,1009.87
2022-11-10T01:14:41.901Z,1009.88
2022-11-10T01:15:41.917Z,1009.88
2022-11-10T01:16:41.935Z,1009.90
2022-11-10T01:17:41.947Z,1009.89
2022-11-10T01:18:41.962Z,1009.89
2022-11-10T01:19:41.976Z,1009.90
2022-11-10T01:20:42.000Z,1009.92
2022-11-10T01:21:42.013Z,1009.92
2022-11-10T01:22:42.023Z,1009.91
2022-11-10T01:23:42.037Z,1009.93
2022-11-10T01:24:42.052Z,1009.96
2022-11-10T01:25:42.068Z,1009.97
2022-11-10T01:26:42.083Z,1009.98
2022-11-10T01:27:42.104Z,1009.97
2022-11-10T01:28:42.120Z,1010.00
2022-11-10T01:29:42.135Z,1010.01
2022-11-10T01:30:42.147Z,1010.07
2022-11-10T01:31:42.160Z,1010.04
2022-11-10T01:32:42.178Z,1010.08
2022-11-10T01:33:42.192Z,1010.08
2022-11-10T01:34:42.210Z,1010.08
2022-11-10T01:35:42.223Z,1010.11
2022-11-10T01:36:42.237Z,1010.11
2022-11-10T01:37:42.256Z,1010.15
2022-11-10T01:38:42.271Z,1010.18
2022-11-10T01:39:42.287Z,1010.17
2022-11-10T01:40:42.345Z,1010.23
2022-11-10T01:41:42.312Z,1010.20
2022-11-10T01:42:42.331Z,1010.20
2022-11-10T01:43:42.343Z,1010.23
2022-11-10T01:44:42.360Z,1010.23
2022-11-10T01:45:42.383Z,1010.22
2022-11-10T01:46:42.392Z,1010.24
2022-11-10T01:47:42.401Z,1010.27
2022-11-10T01:48:42.422Z,1010.27
2022-11-10T01:49:42.434Z,1010.30
2022-11-10T01:50:42.452Z,1010.30
2022-11-10T01:51:42.465Z,1010.31
2022-11-10T01:52:42.480Z,1010.31
2022-11-10T01:53:42.493Z,1010.36
2022-11-10T01:54:42.509Z,1010.37
2022-11-10T01:55:42.525Z,1010.41
2022-11-10T01:56:42.550Z,1010.39
2022-11-10T01:57:42.555Z,1010.41
2022-11-10T01:58:42.571Z,1010.41
2022-11-10T01:59:42.585Z,1010.45
2022-11-10T02:00:42.636Z,1010.42
2022-11-10T02:01:42.615Z,1010.43
2022-11-10T02:02:42.637Z,1010.47
2022-11-10T02:03:42.648Z,1010.42
2022-11-10T02:04:42.660Z,1010.48
2022-11-10T02:05:42.675Z,1010.44
2022-11-10T02:06:42.723Z,1010.44
2022-11-10T02:07:42.707Z,1010.47
2022-11-10T02:08:42.722Z,1010.45
2022-11-10T02:09:42.737Z,1010.42
2022-11-10T02:10:42.750Z,1010.47
2022-11-10T02:11:42.764Z,1010.49
2022-11-10T02:12:42.781Z,1010.47
2022-11-10T02:13:42.792Z,1010.52
2022-11-10T02:14:42.809Z,1010.50
2022-11-10T02:15:42.824Z,1010.52
2022-11-10T02:16:42.841Z,1010.52
2022-11-10T02:17:42.854Z,1010.53
2022-11-10T02:18:42.872Z,1010.56
2022-11-10T02:19:42.884Z,1010.51
2022-11-10T02:20:42.898Z,1010.53
2022-11-10T02:21:42.913Z,1010.58
2022-11-10T02:22:42.936Z,1010.63
2022-11-10T02:23:42.943Z,1010.58
2022-11-10T02:24:42.957Z,1010.59
2022-11-10T02:25:42.973Z,1010.62
2022-11-10T02:26:42.989Z,1010.62
2022-11-10T02:27:43.002Z,1010.63
2022-11-10T02:28:43.019Z,1010.61
2022-11-10T02:29:43.035Z,1010.69
2022-11-10T02:30:43.048Z,1010.67
2022-11-10T02:31:43.062Z,1010.71
2022-11-10T02:32:43.077Z,1010.66
2022-11-10T02:33:43.096Z,1010.67
2022-11-10T02:34:43.109Z,1010.69
2022-11-10T02:35:43.120Z,1010.69
2022-11-10T02:36:43.151Z,1010.71
2022-11-10T02:37:43.154Z,1010.71
2022-11-10T02:38:43.169Z,1010.70
2022-11-10T02:39:43.183Z,1010.74
2022-11-10T02:40:43.196Z,1010.73
2022-11-10T02:41:43.212Z,1010.74
2022-11-10T02:42:43.228Z,1010.79
2022-11-10T02:43:43.239Z,1010.78
2022-11-10T02:44:43.255Z,1010.78
2022-11-10T02:45:43.272Z,1010.84
2022-11-10T02:46:43.289Z,1010.81
2022-11-10T02:47:43.310Z,1010.76
2022-11-10T02:48:43.322Z,1010.81
2022-11-10T02:49:43.333Z,1010.85
2022-11-10T02:50:43.349Z,1010.77
2022-11-10T02:51:43.366Z,1010.80
2022-11-10T02:52:43.393Z,1010.83
2022-11-10T02:53:43.396Z,1010.89
2022-11-10T02:54:43.408Z,1010.84
2022-11-10T02:55:43.425Z,1010.87
2022-11-10T02:56:43.445Z,1010.87
2022-11-10T02:57:43.453Z,1010.88
2022-11-10T02:58:43.468Z,1010.97
2022-11-10T02:59:43.483Z,1010.90
2022-11-10T03:00:43.499Z,1010.95
2022-11-10T03:01:43.606Z,1010.94
2022-11-10T03:02:43.530Z,1010.92
2022-11-10T03:03:43.550Z,1010.97
2022-11-10T03:04:43.557Z,1010.95
2022-11-10T03:05:43.574Z,1010.98
2022-11-10T03:06:43.624Z,1010.97
2022-11-10T03:07:43.604Z,1011.05
2022-11-10T03:08:43.620Z,1010.99
2022-11-10T03:09:43.634Z,1010.98
2022-11-10T03:10:43.650Z,1011.08
2022-11-10T03:11:43.665Z,1011.04
2022-11-10T03:12:43.680Z,1011.07
2022-11-10T03:14:00.486Z,1011.07
2022-11-10T03:14:43.712Z,1011.14
2022-11-10T03:15:43.725Z,1011.15
2022-11-10T03:16:43.741Z,1011.19
2022-11-10T03:17:43.760Z,1011.21
2022-11-10T03:18:43.772Z,1011.23
2022-11-10T03:19:43.784Z,1011.20
2022-11-10T03:20:43.804Z,1011.31
2022-11-10T03:21:43.820Z,1011.20
2022-11-10T03:22:43.834Z,1011.24
2022-11-10T03:23:43.848Z,1011.26
2022-11-10T03:24:43.862Z,1011.27
2022-11-10T03:25:43.878Z,1011.33
2022-11-10T03:26:43.894Z,1011.39
2022-11-10T03:27:43.910Z,1011.37
2022-11-10T03:28:43.925Z,1011.37
2022-11-10T03:29:43.941Z,1011.43
2022-11-10T03:30:43.953Z,1011.43
2022-11-10T03:31:43.969Z,1011.47
2022-11-10T03:32:43.984Z,1011.48
2022-11-10T03:33:44.000Z,1011.48
2022-11-10T03:34:44.017Z,1011.49
2022-11-10T03:35:44.033Z,1011.59
2022-11-10T03:36:44.045Z,1011.59
2022-11-10T03:37:44.063Z,1011.53
2022-11-10T03:38:44.075Z,1011.63
2022-11-10T03:39:44.089Z,1011.59
2022-11-10T03:41:16.980Z,1011.59
2022-11-10T03:41:44.119Z,1011.60
2022-11-10T03:42:44.134Z,1011.63
2022-11-10T03:43:44.150Z,1011.65
2022-11-10T03:44:44.165Z,1011.63
2022-11-10T03:45:44.180Z,1011.61
2022-11-10T03:46:46.816Z,1011.66
2022-11-10T03:47:44.212Z,1011.62
2022-11-10T03:48:48.780Z,1011.65
2022-11-10T03:49:44.239Z,1011.73
2022-11-10T03:50:44.256Z,1011.71
2022-11-10T03:51:44.274Z,1011.67
2022-11-10T03:52:44.288Z,1011.67
2022-11-10T03:53:44.296Z,1011.70
2022-11-10T03:54:44.313Z,1011.72
2022-11-10T03:55:44.328Z,1011.74
2022-11-10T03:56:44.341Z,1011.76
2022-11-10T03:57:44.359Z,1011.77
2022-11-10T03:58:44.372Z,1011.74
2022-11-10T03:59:44.385Z,1011.78
2022-11-10T04:00:44.402Z,1011.78
2022-11-10T04:01:44.460Z,1011.81
2022-11-10T04:02:44.429Z,1011.82
2022-11-10T04:03:48.756Z,1011.80
2022-11-10T04:04:44.458Z,1011.84
2022-11-10T04:05:44.470Z,1011.84
2022-11-10T04:06:44.527Z,1011.87
2022-11-10T04:07:44.500Z,1011.89
2022-11-10T04:08:44.520Z,1011.88
2022-11-10T04:09:44.534Z,1011.90
2022-11-10T04:10:44.546Z,1011.86
2022-11-10T04:11:44.559Z,1011.88
2022-11-10T04:12:44.573Z,1011.87
2022-11-10T04:13:44.590Z,1011.89
2022-11-10T04:14:44.604Z,1011.89
2022-11-10T04:15:44.667Z,1011.92
2022-11-10T04:16:44.631Z,1011.93
2022-11-10T04:17:44.647Z,1011.95
2022-11-10T04:18:44.661Z,1011.94
2022-11-10T04:19:44.676Z,1012.04
2022-11-10T04:20:44.690Z,1012.04
2022-11-10T04:21:44.704Z,1012.00
2022-11-10T04:22:44.721Z,1012.04
2022-11-10T04:23:44.731Z,1012.06
2022-11-10T04:24:44.745Z,1012.09
2022-11-10T04:25:44.761Z,1012.08
2022-11-10T04:26:44.776Z,1012.11
2022-11-10T04:27:44.790Z,1012.10
2022-11-10T04:28:44.804Z,1012.11
2022-11-10T04:29:44.819Z,1012.12
2022-11-10T04:30:44.840Z,1012.17
2022-11-10T04:31:44.846Z,1012.19
2022-11-10T04:32:44.861Z,1012.25
2022-11-10T04:33:44.877Z,1012.28
2022-11-10T04:34:44.899Z,1012.28
2022-11-10T04:35:44.912Z,1012.28
2022-11-10T04:36:44.920Z,1012.33
2022-11-10T04:37:44.934Z,1012.34
2022-11-10T04:38:44.952Z,1012.33
2022-11-10T04:39:44.969Z,1012.33
2022-11-10T04:40:44.978Z,1012.32
2022-11-10T04:41:44.992Z,1012.40
2022-11-10T04:42:45.009Z,1012.31
2022-11-10T04:43:45.019Z,1012.32
2022-11-10T04:44:45.035Z,1012.35
2022-11-10T04:45:45.048Z,1012.36
2022-11-10T04:46:45.065Z,1012.33
2022-11-10T04:47:45.076Z,1012.34
2022-11-10T04:48:45.091Z,1012.37
2022-11-10T04:49:45.106Z,1012.33
2022-11-10T04:50:45.122Z,1012.36
2022-11-10T04:51:45.166Z,1012.33
2022-11-10T04:52:45.152Z,1012.37
2022-11-10T04:53:45.164Z,1012.35
2022-11-10T04:54:45.180Z,1012.35
2022-11-10T04:55:45.189Z,1012.43
2022-11-10T04:56:45.206Z,1012.41
2022-11-10T04:57:45.220Z,1012.40
2022-11-10T04:58:45.233Z,1012.45
2022-11-10T04:59:45.248Z,1012.44
2022-11-10T05:00:45.332Z,1012.46
2022-11-10T05:01:45.295Z,1012.45
2022-11-10T05:02:45.300Z,1012.43
2022-11-10T05:03:45.302Z,1012.44
2022-11-10T05:04:45.321Z,1012.48
2022-11-10T05:05:45.332Z,1012.49
2022-11-10T05:06:45.422Z,1012.50
2022-11-10T05:07:45.371Z,1012.51
2022-11-10T05:08:45.375Z,1012.55
2022-11-10T05:09:45.389Z,1012.58
2022-11-10T05:10:45.401Z,1012.59
2022-11-10T05:11:45.414Z,1012.61
2022-11-10T05:12:45.428Z,1012.64
2022-11-10T05:13:45.447Z,1012.64
2022-11-10T05:14:45.459Z,1012.61
2022-11-10T05:15:45.471Z,1012.64
2022-11-10T05:16:45.483Z,1012.64
2022-11-10T05:17:45.500Z,1012.64
2022-11-10T05:18:45.514Z,1012.66
2022-11-10T05:19:45.525Z,1012.70
2022-11-10T05:20:45.541Z,1012.73
2022-11-10T05:21:45.551Z,1012.73
2022-11-10T05:22:49.058Z,1012.73
2022-11-10T05:23:45.581Z,1012.76
2022-11-10T05:24:45.595Z,1012.77
2022-11-10T05:25:45.612Z,1012.76
2022-11-10T05:26:45.624Z,1012.84
2022-11-10T05:27:45.636Z,1012.83
2022-11-10T05:28:45.649Z,1012.88
2022-11-10T05:29:45.664Z,1012.85
2022-11-10T05:30:45.679Z,1012.91
2022-11-10T05:31:50.497Z,1012.89
2022-11-10T05:32:45.706Z,1012.94
2022-11-10T05:33:45.717Z,1012.98
2022-11-10T05:34:45.733Z,1012.96
2022-11-10T05:35:45.748Z,1012.96
2022-11-10T05:36:45.761Z,1013.02
2022-11-10T05:37:45.776Z,1013.02
2022-11-10T05:38:45.790Z,1013.05
2022-11-10T05:39:45.803Z,1013.13
2022-11-10T05:40:45.816Z,1013.13
2022-11-10T05:41:45.828Z,1013.13
2022-11-10T05:42:45.850Z,1013.15
2022-11-10T05:43:45.856Z,1013.15
2022-11-10T05:44:45.870Z,1013.19
2022-11-10T05:45:45.884Z,1013.18
2022-11-10T05:46:45.899Z,1013.22
2022-11-10T05:47:45.910Z,1013.23
2022-11-10T05:48:45.927Z,1013.26
2022-11-10T05:49:45.939Z,1013.28
2022-11-10T05:50:45.952Z,1013.34
2022-11-10T05:51:45.964Z,1013.34
2022-11-10T05:52:49.974Z,1013.38
2022-11-10T05:53:45.995Z,1013.37
2022-11-10T05:54:46.005Z,1013.38
2022-11-10T05:55:46.021Z,1013.42
2022-11-10T05:56:46.033Z,1013.44
2022-11-10T05:57:46.048Z,1013.46
2022-11-10T05:58:46.062Z,1013.50
2022-11-10T05:59:46.079Z,1013.51
2022-11-10T06:00:46.090Z,1013.52
2022-11-10T06:01:46.101Z,1013.60
2022-11-10T06:02:46.117Z,1013.63
2022-11-10T06:03:46.168Z,1013.66
2022-11-10T06:04:46.144Z,1013.69
2022-11-10T06:05:46.156Z,1013.68
2022-11-10T06:06:46.196Z,1013.69
2022-11-10T06:07:46.183Z,1013.72
2022-11-10T06:08:46.200Z,1013.69
2022-11-10T06:09:46.211Z,1013.70
2022-11-10T06:10:46.226Z,1013.74
2022-11-10T06:11:46.238Z,1013.74
2022-11-10T06:12:46.703Z,1013.75
2022-11-10T06:13:46.265Z,1013.74
2022-11-10T06:14:46.278Z,1013.78
2022-11-10T06:15:50.172Z,1013.76
2022-11-10T06:16:46.593Z,1013.80
2022-11-10T06:17:46.317Z,1013.80
2022-11-10T06:18:46.333Z,1013.87
2022-11-10T06:19:46.345Z,1013.90
2022-11-10T06:20:46.362Z,1013.86
2022-11-10T06:21:46.373Z,1013.91
2022-11-10T06:22:46.386Z,1013.96
2022-11-10T06:23:46.400Z,1013.98
2022-11-10T06:24:46.422Z,1014.02
2022-11-10T06:25:46.429Z,1014.01
2022-11-10T06:26:46.441Z,1014.06
2022-11-10T06:27:46.453Z,1014.06
2022-11-10T06:28:46.470Z,1014.09
2022-11-10T06:29:46.482Z,1014.06
2022-11-10T06:30:46.498Z,1014.12
2022-11-10T06:31:46.506Z,1014.15
2022-11-10T06:32:46.522Z,1014.20
2022-11-10T06:33:46.538Z,1014.22
2022-11-10T06:34:46.558Z,1014.27
2022-11-10T06:35:46.561Z,1014.34
2022-11-10T06:36:46.575Z,1014.34
2022-11-10T06:37:46.591Z,1014.35
2022-11-10T06:38:46.603Z,1014.33
2022-11-10T06:39:46.616Z,1014.37
2022-11-10T06:40:46.630Z,1014.38
2022-11-10T06:41:46.643Z,1014.40
2022-11-10T06:42:46.656Z,1014.41
2022-11-10T06:43:46.686Z,1014.46
2022-11-10T06:44:46.685Z,1014.49
2022-11-10T06:45:46.695Z,1014.48
2022-11-10T06:46:46.709Z,1014.52
2022-11-10T06:47:46.726Z,1014.54
2022-11-10T06:48:46.737Z,1014.59
2022-11-10T06:49:46.748Z,1014.62
2022-11-10T06:50:46.761Z,1014.65
2022-11-10T06:51:46.778Z,1014.69
2022-11-10T06:52:46.789Z,1014.75
2022-11-10T06:53:46.803Z,1014.77
2022-11-10T06:54:46.816Z,1014.78
2022-11-10T06:55:46.830Z,1014.81
2022-11-10T06:56:46.845Z,1014.80
2022-11-10T06:57:46.857Z,1014.84
2022-11-10T06:58:46.869Z,1014.89
2022-11-10T06:59:46.885Z,1014.87
2022-11-10T07:00:46.939Z,1014.88
2022-11-10T07:01:46.920Z,1014.91
2022-11-10T07:02:46.925Z,1014.95
2022-11-10T07:04:13.022Z,1014.96
2022-11-10T07:04:46.950Z,1015.00
2022-11-10T07:05:46.965Z,1015.05
2022-11-10T07:06:47.018Z,1015.07
2022-11-10T07:07:46.995Z,1015.10
2022-11-10T07:08:47.004Z,1015.09
2022-11-10T07:09:47.027Z,1015.11
2022-11-10T07:10:47.030Z,1015.09
2022-11-10T07:11:47.045Z,1015.11
2022-11-10T07:12:47.059Z,1015.17
2022-11-10T07:13:47.073Z,1015.20
2022-11-10T07:14:47.086Z,1015.25
2022-11-10T07:15:47.106Z,1015.30
2022-11-10T07:16:47.112Z,1015.32
2022-11-10T07:17:47.128Z,1015.34
2022-11-10T07:18:47.140Z,1015.34
2022-11-10T07:19:47.156Z,1015.40
2022-11-10T07:20:47.171Z,1015.39
2022-11-10T07:21:47.189Z,1015.33
2022-11-10T07:22:47.216Z,1015.28
2022-11-10T07:23:47.216Z,1015.31
2022-11-10T07:24:47.229Z,1015.31
2022-11-10T07:25:47.239Z,1015.32
2022-11-10T07:26:47.259Z,1015.38
2022-11-10T07:27:47.288Z,1015.40
2022-11-10T07:28:47.287Z,1015.39
2022-11-10T07:29:47.296Z,1015.44
2022-11-10T07:30:47.309Z,1015.45
2022-11-10T07:31:47.322Z,1015.46
2022-11-10T07:32:47.337Z,1015.50
2022-11-10T07:33:50.605Z,1015.53
2022-11-10T07:34:47.368Z,1015.54
2022-11-10T07:35:47.381Z,1015.57
2022-11-10T07:36:47.396Z,1015.58
2022-11-10T07:37:47.411Z,1015.59
2022-11-10T07:38:47.424Z,1015.66
2022-11-10T07:39:47.438Z,1015.62
2022-11-10T07:40:47.455Z,1015.63
2022-11-10T07:41:52.091Z,1015.64
2022-11-10T07:42:47.484Z,1015.63
2022-11-10T07:43:47.495Z,1015.69
2022-11-10T07:44:47.512Z,1015.68
2022-11-10T07:45:47.527Z,1015.67
2022-11-10T07:46:47.541Z,1015.71
2022-11-10T07:47:47.557Z,1015.67
2022-11-10T07:48:47.580Z,1015.69
2022-11-10T07:49:47.587Z,1015.77
2022-11-10T07:50:47.605Z,1015.80
2022-11-10T07:51:47.613Z,1015.81
2022-11-10T07:52:47.630Z,1015.80
2022-11-10T07:53:47.644Z,1015.83
2022-11-10T07:54:47.659Z,1015.87
2022-11-10T07:55:47.671Z,1015.85
2022-11-10T07:56:47.685Z,1015.93
2022-11-10T07:57:47.703Z,1015.90
2022-11-10T07:58:47.716Z,1015.90
2022-11-10T07:59:47.730Z,1015.90
2022-11-10T08:00:47.749Z,1015.90
2022-11-10T08:01:47.832Z,1015.99
2022-11-10T08:02:47.775Z,1015.91
2022-11-10T08:03:47.795Z,1016.01
2022-11-10T08:04:47.801Z,1015.98
2022-11-10T08:05:47.819Z,1015.97
2022-11-10T08:06:47.967Z,1016.02
2022-11-10T08:07:47.878Z,1016.00
2022-11-10T08:08:47.878Z,1016.05
2022-11-10T08:09:47.877Z,1016.04
2022-11-10T08:10:47.892Z,1016.06
2022-11-10T08:11:47.909Z,1016.07
2022-11-10T08:12:47.920Z,1016.03
2022-11-10T08:13:47.934Z,1016.02
2022-11-10T08:14:47.950Z,1016.10
2022-11-10T08:15:47.965Z,1016.08
2022-11-10T08:16:47.981Z,1016.08
2022-11-10T08:17:47.993Z,1016.15
2022-11-10T08:18:48.013Z,1016.15
2022-11-10T08:19:48.021Z,1016.15
2022-11-10T08:20:48.039Z,1016.14
2022-11-10T08:21:48.053Z,1016.14
2022-11-10T08:22:48.068Z,1016.17
2022-11-10T08:23:48.081Z,1016.15
2022-11-10T08:24:48.099Z,1016.22
2022-11-10T08:25:48.113Z,1016.13
2022-11-10T08:26:48.129Z,1016.20
2022-11-10T08:27:48.143Z,1016.20
2022-11-10T08:28:48.158Z,1016.19
2022-11-10T08:29:48.176Z,1016.16
2022-11-10T08:30:48.192Z,1016.24
2022-11-10T08:31:48.207Z,1016.28
2022-11-10T08:32:48.219Z,1016.26
2022-11-10T08:33:48.233Z,1016.23
2022-11-10T08:34:48.249Z,1016.30
2022-11-10T08:35:48.263Z,1016.20
2022-11-10T08:36:48.278Z,1016.23
2022-11-10T08:37:48.295Z,1016.37
2022-11-10T08:38:48.311Z,1016.36
2022-11-10T08:39:48.326Z,1016.36
2022-11-10T08:40:48.341Z,1016.41
2022-11-10T08:41:48.355Z,1016.40
2022-11-10T08:42:48.370Z,1016.40
2022-11-10T08:43:48.385Z,1016.42
2022-11-10T08:44:48.400Z,1016.40
2022-11-10T08:45:48.415Z,1016.51
2022-11-10T08:46:48.432Z,1016.46
2022-11-10T08:47:48.445Z,1016.54
2022-11-10T08:48:48.462Z,1016.50
2022-11-10T08:49:48.479Z,1016.55
2022-11-10T08:50:48.493Z,1016.59
2022-11-10T08:51:48.508Z,1016.61
2022-11-10T08:52:48.526Z,1016.61
2022-11-10T08:53:48.546Z,1016.62
2022-11-10T08:54:48.557Z,1016.62
2022-11-10T08:55:48.570Z,1016.63
2022-11-10T08:56:48.587Z,1016.68
2022-11-10T08:57:48.601Z,1016.76
2022-11-10T08:58:53.173Z,1016.73
2022-11-10T08:59:48.630Z,1016.76
2022-11-10T09:00:48.645Z,1016.78
2022-11-10T09:01:48.662Z,1016.80
2022-11-10T09:02:48.679Z,1016.82
2022-11-10T09:03:48.696Z,1016.81
2022-11-10T09:04:48.750Z,1016.86
2022-11-10T09:05:51.236Z,1016.85
2022-11-10T09:06:48.821Z,1016.95
2022-11-10T09:07:48.754Z,1016.94
2022-11-10T09:08:48.774Z,1016.94
2022-11-10T09:10:06.119Z,1016.99
2022-11-10T09:10:48.801Z,1017.00
2022-11-10T09:11:48.816Z,1016.96
2022-11-10T09:12:48.833Z,1017.03
2022-11-10T09:13:48.848Z,1017.04
2022-11-10T09:14:48.866Z,1017.03
2022-11-10T09:15:48.880Z,1017.00
2022-11-10T09:16:48.896Z,1017.03
2022-11-10T09:17:48.912Z,1017.04
2022-11-10T09:18:48.927Z,1017.16
2022-11-10T09:19:49.044Z,1017.11
2022-11-10T09:20:48.959Z,1017.20
2022-11-10T09:21:48.975Z,1017.13
2022-11-10T09:22:48.990Z,1017.21
2022-11-10T09:23:49.011Z,1017.20
2022-11-10T09:24:49.022Z,1017.23
2022-11-10T09:25:49.040Z,1017.18
2022-11-10T09:26:49.054Z,1017.20
2022-11-10T09:27:49.073Z,1017.16
2022-11-10T09:28:49.086Z,1017.20
2022-11-10T09:29:49.113Z,1017.19
2022-11-10T09:30:49.136Z,1017.14
2022-11-10T09:31:49.134Z,1017.18
2022-11-10T09:32:49.148Z,1017.18
2022-11-10T09:33:49.192Z,1017.19
2022-11-10T09:34:52.888Z,1017.28
2022-11-10T09:35:49.200Z,1017.20
2022-11-10T09:36:49.216Z,1017.23
2022-11-10T09:37:49.230Z,1017.22
2022-11-10T09:38:49.248Z,1017.22
2022-11-10T09:39:49.261Z,1017.25
2022-11-10T09:40:49.277Z,1017.28
2022-11-10T09:41:49.299Z,1017.27
2022-11-10T09:42:49.314Z,1017.21
2022-11-10T09:43:49.326Z,1017.29
2022-11-10T09:44:49.343Z,1017.27
2022-11-10T09:45:49.359Z,1017.30
2022-11-10T09:46:49.376Z,1017.35
2022-11-10T09:47:58.011Z,1017.35
2022-11-10T09:48:49.408Z,1017.38
2022-11-10T09:49:49.422Z,1017.39
2022-11-10T09:50:49.447Z,1017.41
2022-11-10T09:51:49.457Z,1017.43
2022-11-10T09:52:49.470Z,1017.45
2022-11-10T09:53:49.490Z,1017.41
2022-11-10T09:54:49.505Z,1017.43
2022-11-10T09:55:49.520Z,1017.40
2022-11-10T09:56:49.536Z,1017.43
2022-11-10T09:57:49.552Z,1017.41
2022-11-10T09:58:49.567Z,1017.39
2022-11-10T09:59:49.583Z,1017.39
2022-11-10T10:00:49.600Z,1017.45
2022-11-10T10:01:49.673Z,1017.47
2022-11-10T10:02:49.633Z,1017.41
2022-11-10T10:03:49.651Z,1017.42
2022-11-10T10:04:52.063Z,1017.43
2022-11-10T10:05:49.686Z,1017.44
2022-11-10T10:07:09.689Z,1017.40
2022-11-10T10:07:49.763Z,1017.38
2022-11-10T10:08:49.732Z,1017.44
2022-11-10T10:09:49.746Z,1017.42
2022-11-10T10:10:49.776Z,1017.42
2022-11-10T10:11:49.778Z,1017.43
2022-11-10T10:12:49.799Z,1017.45
2022-11-10T10:13:49.812Z,1017.41
2022-11-10T10:14:49.829Z,1017.42
2022-11-10T10:15:49.843Z,1017.48
2022-11-10T10:16:49.862Z,1017.43
2022-11-10T10:17:49.877Z,1017.38
2022-11-10T10:18:49.897Z,1017.33
2022-11-10T10:19:49.912Z,1017.32
2022-11-10T10:20:49.930Z,1017.38
2022-11-10T10:21:49.946Z,1017.40
2022-11-10T10:22:49.964Z,1017.39
2022-11-10T10:24:21.427Z,1017.38
2022-11-10T10:24:49.998Z,1017.36
2022-11-10T10:25:50.010Z,1017.32
2022-11-10T10:26:50.027Z,1017.38
2022-11-10T10:27:50.045Z,1017.41
2022-11-10T10:28:50.062Z,1017.49
2022-11-10T10:29:50.080Z,1017.43
2022-11-10T10:30:50.095Z,1017.45
2022-11-10T10:31:50.113Z,1017.50
2022-11-10T10:32:50.128Z,1017.46
2022-11-10T10:33:50.143Z,1017.49
2022-11-10T10:34:50.164Z,1017.48
2022-11-10T10:35:50.182Z,1017.46
2022-11-10T10:36:50.191Z,1017.47
2022-11-10T10:37:50.211Z,1017.46
2022-11-10T10:38:50.226Z,1017.52
2022-11-10T10:39:50.240Z,1017.48
2022-11-10T10:40:50.258Z,1017.51
2022-11-10T10:41:50.276Z,1017.52
2022-11-10T10:42:50.313Z,1017.49
2022-11-10T10:43:50.308Z,1017.57
2022-11-10T10:44:50.325Z,1017.57
2022-11-10T10:45:50.407Z,1017.64
2022-11-10T10:46:50.359Z,1017.58
2022-11-10T10:47:50.374Z,1017.59
2022-11-10T10:48:53.844Z,1017.57
2022-11-10T10:49:50.405Z,1017.66
2022-11-10T10:50:50.427Z,1017.67
2022-11-10T10:51:50.440Z,1017.70
2022-11-10T10:52:50.460Z,1017.69
2022-11-10T10:53:50.471Z,1017.72
2022-11-10T10:54:50.491Z,1017.75
2022-11-10T10:55:50.510Z,1017.74
2022-11-10T10:56:50.525Z,1017.81
2022-11-10T10:57:50.539Z,1017.85
2022-11-10T10:58:50.554Z,1017.86
2022-11-10T10:59:50.572Z,1017.83
2022-11-10T11:00:50.587Z,1017.85
2022-11-10T11:01:50.658Z,1017.81
2022-11-10T11:02:50.622Z,1017.70
2022-11-10T11:03:50.636Z,1017.71
2022-11-10T11:04:50.655Z,1017.69
2022-11-10T11:05:50.670Z,1017.71
2022-11-10T11:06:50.764Z,1017.72
2022-11-10T11:07:50.705Z,1017.69
2022-11-10T11:08:50.722Z,1017.65
2022-11-10T11:09:50.739Z,1017.72
2022-11-10T11:10:50.755Z,1017.67
2022-11-10T11:11:50.772Z,1017.71
2022-11-10T11:12:50.790Z,1017.67
2022-11-10T11:13:50.808Z,1017.62
2022-11-10T11:14:50.827Z,1017.62
2022-11-10T11:15:50.853Z,1017.66
2022-11-10T11:16:50.862Z,1017.63
2022-11-10T11:17:50.904Z,1017.70
2022-11-10T11:18:50.896Z,1017.64
2022-11-10T11:19:53.433Z,1017.68
2022-11-10T11:20:50.930Z,1017.69
2022-11-10T11:21:50.950Z,1017.59
2022-11-10T11:22:50.969Z,1017.63
2022-11-10T11:23:50.983Z,1017.68
2022-11-10T11:24:51.001Z,1017.70
2022-11-10T11:25:51.018Z,1017.65
2022-11-10T11:26:51.074Z,1017.69
2022-11-10T11:27:51.056Z,1017.77
2022-11-10T11:28:51.070Z,1017.67
2022-11-10T11:29:51.097Z,1017.70
2022-11-10T11:30:51.117Z,1017.75
2022-11-10T11:31:51.125Z,1017.70
2022-11-10T11:32:51.145Z,1017.77
2022-11-10T11:33:51.163Z,1017.71
2022-11-10T11:34:51.179Z,1017.73
2022-11-10T11:35:51.201Z,1017.72
2022-11-10T11:36:51.213Z,1017.73
2022-11-10T11:37:51.232Z,1017.73
2022-11-10T11:38:51.288Z,1017.74
2022-11-10T11:39:51.270Z,1017.74
2022-11-10T11:40:51.283Z,1017.74
2022-11-10T11:41:51.305Z,1017.79
2022-11-10T11:42:51.322Z,1017.72
2022-11-10T11:43:51.335Z,1017.77
2022-11-10T11:44:51.356Z,1017.75
2022-11-10T11:45:51.375Z,1017.80
2022-11-10T11:46:51.396Z,1017.78
2022-11-10T11:47:51.409Z,1017.79
2022-11-10T11:48:51.425Z,1017.80
2022-11-10T11:49:51.445Z,1017.77
2022-11-10T11:50:51.464Z,1017.76
2022-11-10T11:51:51.480Z,1017.78
2022-11-10T11:52:51.499Z,1017.89
2022-11-10T11:53:51.516Z,1017.84
2022-11-10T11:54:51.537Z,1017.88
2022-11-10T11:55:51.553Z,1017.88
2022-11-10T11:56:51.570Z,1017.88
2022-11-10T11:57:51.589Z,1017.88
2022-11-10T11:58:51.614Z,1017.84
2022-11-10T11:59:51.623Z,1017.87
2022-11-10T12:00:51.647Z,1017.83
2022-11-10T12:01:51.660Z,1017.89
2022-11-10T12:02:53.141Z,1017.85
2022-11-10T12:03:51.695Z,1017.91
2022-11-10T12:04:51.715Z,1017.93
2022-11-10T12:05:51.735Z,1017.90